createdAt,value
2019-05-26T00:01:11.229Z,99012.73
2019-05-26T00:04:32.898Z,99016.09
2019-05-26T00:07:01.592Z,99010.71
2019-05-26T00:09:28.652Z,99030.11
2019-05-26T00:11:55.538Z,99024.09
2019-05-26T00:14:22.286Z,99011.30
2019-05-26T00:16:49.210Z,99010.48
2019-05-26T00:19:15.824Z,99017.25
2019-05-26T00:21:42.577Z,99013.95
2019-05-26T00:24:09.376Z,99015.00
2019-05-26T00:26:36.008Z,99021.34
2019-05-26T00:36:15.693Z,99024.86
2019-05-26T00:38:42.724Z,99014.42
2019-05-26T00:41:10.182Z,99034.70
2019-05-26T00:43:37.014Z,99029.32
2019-05-26T00:46:03.723Z,99027.28
2019-05-26T00:48:30.520Z,99021.88
2019-05-26T00:50:57.206Z,99024.34
2019-05-26T00:53:23.950Z,99030.70
2019-05-26T00:55:51.159Z,99029.17
2019-05-26T00:58:35.592Z,99028.98
2019-05-26T01:01:02.627Z,99037.17
2019-05-26T01:03:29.192Z,99041.19
2019-05-26T01:05:55.883Z,99035.19
2019-05-26T01:08:22.367Z,99030.14
2019-05-26T01:10:49.266Z,99031.88
2019-05-26T01:13:16.055Z,99021.22
2019-05-26T01:15:42.835Z,99027.44
2019-05-26T01:18:09.477Z,99028.43
2019-05-26T01:20:36.019Z,99019.30
2019-05-26T01:23:03.418Z,99016.62
2019-05-26T01:25:30.717Z,99007.27
2019-05-26T01:27:57.709Z,99015.59
2019-05-26T01:30:37.768Z,99012.11
2019-05-26T01:51:44.787Z,99016.93
2019-05-26T02:11:28.988Z,99028.41
2019-05-26T02:16:44.427Z,99031.43
2019-05-26T02:19:11.741Z,99039.48
2019-05-26T02:28:51.419Z,99033.42
2019-05-26T02:42:10.687Z,99035.30
2019-05-26T02:44:37.345Z,99039.87
2019-05-26T02:47:04.433Z,99028.16
2019-05-26T02:53:02.185Z,99015.18
2019-05-26T02:59:00.506Z,99022.69
2019-05-26T03:01:28.285Z,99038.75
2019-05-26T03:25:59.275Z,99043.27
2019-05-26T03:28:26.490Z,99059.51
2019-05-26T03:30:53.868Z,99055.33
2019-05-26T03:33:21.114Z,99056.69
2019-05-26T03:35:47.957Z,99042.67
2019-05-26T03:38:14.602Z,99045.34
2019-05-26T03:40:41.461Z,99042.86
2019-05-26T03:43:08.129Z,99037.35
2019-05-26T03:45:45.989Z,99047.73
2019-05-26T03:48:12.664Z,99052.90
2019-05-26T03:50:39.370Z,99047.23
2019-05-26T03:53:24.921Z,99045.05
2019-05-26T03:55:52.059Z,99054.23
2019-05-26T04:32:06.033Z,99066.88
2019-05-26T04:34:33.262Z,99058.36
2019-05-26T04:37:01.113Z,99070.70
2019-05-26T04:39:28.328Z,99067.38
2019-05-26T04:41:55.304Z,99064.02
2019-05-26T04:44:22.491Z,99058.66
2019-05-26T04:46:49.595Z,99063.66
2019-05-26T04:49:16.886Z,99060.64
2019-05-26T04:51:46.924Z,99056.62
2019-05-26T04:54:14.095Z,99061.95
2019-05-26T04:56:41.076Z,99059.77
2019-05-26T04:59:09.111Z,99070.63
2019-05-26T05:01:36.335Z,99065.92
2019-05-26T05:11:14.814Z,99049.15
2019-05-26T05:13:42.045Z,99064.52
2019-05-26T05:16:09.102Z,99054.80
2019-05-26T05:22:30.444Z,99060.29
2019-05-26T05:24:57.185Z,99065.15
2019-05-26T05:27:24.188Z,99053.77
2019-05-26T05:29:50.673Z,99052.08
2019-05-26T05:32:17.340Z,99057.79
2019-05-26T05:34:43.935Z,99054.09
2019-05-26T05:37:10.551Z,99053.39
2019-05-26T05:39:37.134Z,99055.20
2019-05-26T05:42:03.820Z,99053.66
2019-05-26T05:47:16.055Z,99055.58
2019-05-26T05:49:43.126Z,99071.75
2019-05-26T05:52:10.413Z,99074.01
2019-05-26T05:54:37.315Z,99073.83
2019-05-26T05:57:03.968Z,99067.59
2019-05-26T05:59:30.456Z,99065.70
2019-05-26T06:01:56.990Z,99066.97
2019-05-26T06:04:23.554Z,99066.44
2019-05-26T06:06:50.290Z,99059.34
2019-05-26T06:09:17.161Z,99078.45
2019-05-26T06:11:43.824Z,99080.13
2019-05-26T06:14:11.393Z,99068.73
2019-05-26T06:24:04.908Z,99078.73
2019-05-26T06:31:02.261Z,99077.25
2019-05-26T06:37:49.453Z,99083.09
2019-05-26T06:44:29.971Z,99079.69
2019-05-26T06:47:41.249Z,99088.09
2019-05-26T06:50:08.575Z,99091.52
2019-05-26T06:52:37.307Z,99087.25
2019-05-26T06:55:31.309Z,99080.23
2019-05-26T07:02:15.724Z,99077.33
2019-05-26T07:08:45.342Z,99080.19
2019-05-26T07:11:12.537Z,99073.65
2019-05-26T07:13:39.136Z,99069.55
2019-05-26T07:16:05.993Z,99072.22
2019-05-26T07:18:33.011Z,99073.75
2019-05-26T07:21:03.489Z,99067.28
2019-05-26T07:23:41.373Z,99067.28
2019-05-26T07:26:11.283Z,99070.53
2019-05-26T07:28:37.884Z,99062.38
2019-05-26T07:31:04.606Z,99065.55
2019-05-26T07:33:31.138Z,99067.91
2019-05-26T07:35:57.853Z,99067.12
2019-05-26T07:38:24.357Z,99063.50
2019-05-26T07:40:50.931Z,99065.56
2019-05-26T07:43:17.612Z,99063.72
2019-05-26T07:45:44.371Z,99059.73
2019-05-26T07:48:11.079Z,99063.53
2019-05-26T07:50:37.769Z,99063.06
2019-05-26T07:53:04.345Z,99065.49
2019-05-26T07:55:33.187Z,99069.98
2019-05-26T07:57:59.880Z,99066.47
2019-05-26T08:00:26.665Z,99064.66
2019-05-26T08:02:53.340Z,99069.17
2019-05-26T08:05:19.938Z,99061.56
2019-05-26T08:07:46.526Z,99060.68
2019-05-26T08:10:15.934Z,99056.61
2019-05-26T08:12:42.562Z,99062.75
2019-05-26T08:15:09.602Z,99062.22
2019-05-26T08:17:36.444Z,99060.11
2019-05-26T08:20:10.108Z,99070.64
2019-05-26T08:22:36.927Z,99061.66
2019-05-26T08:25:06.293Z,99067.34
2019-05-26T08:27:33.228Z,99066.35
2019-05-26T08:29:59.713Z,99060.70
2019-05-26T08:32:26.414Z,99062.28
2019-05-26T08:34:52.943Z,99059.14
2019-05-26T08:37:19.567Z,99062.89
2019-05-26T08:39:48.650Z,99058.42
2019-05-26T08:42:27.042Z,99054.24
2019-05-26T08:44:44.184Z,99065.86
2019-05-26T08:47:10.675Z,99061.59
2019-05-26T08:49:37.191Z,99062.69
2019-05-26T08:52:04.084Z,99059.55
2019-05-26T08:54:30.519Z,99056.13
2019-05-26T08:56:57.652Z,99056.20
2019-05-26T08:59:24.578Z,99056.08
2019-05-26T09:01:51.047Z,99054.67
2019-05-26T09:04:17.944Z,99051.07
2019-05-26T09:06:44.490Z,99057.51
2019-05-26T09:09:11.256Z,99055.29
2019-05-26T09:11:37.951Z,99052.34
2019-05-26T09:14:04.636Z,99045.33
2019-05-26T09:16:32.321Z,99046.99
2019-05-26T09:18:58.818Z,99045.05
2019-05-26T09:21:25.435Z,99045.30
2019-05-26T09:23:51.897Z,99046.77
2019-05-26T09:26:18.576Z,99049.17
2019-05-26T09:28:45.256Z,99040.80
2019-05-26T09:31:11.761Z,99038.75
2019-05-26T09:33:38.234Z,99037.05
2019-05-26T09:36:05.007Z,99025.73
2019-05-26T09:38:31.961Z,99036.28
2019-05-26T09:40:58.460Z,99028.80
2019-05-26T09:43:25.019Z,99034.93
2019-05-26T09:45:51.510Z,99025.96
2019-05-26T09:48:17.993Z,99026.55
2019-05-26T09:50:44.764Z,99019.64
2019-05-26T09:53:11.270Z,99015.90
2019-05-26T09:55:37.814Z,99018.20
2019-05-26T09:58:05.837Z,99014.42
2019-05-26T10:00:32.700Z,99012.52
2019-05-26T10:02:59.306Z,99003.31
2019-05-26T10:05:25.871Z,99009.44
2019-05-26T10:07:52.665Z,99010.87
2019-05-26T10:10:19.405Z,99006.82
2019-05-26T10:12:46.234Z,99003.41
2019-05-26T10:15:13.616Z,99008.47
2019-05-26T10:17:40.859Z,99006.30
2019-05-26T10:20:08.511Z,99005.48
2019-05-26T10:22:35.441Z,99005.77
2019-05-26T10:25:04.485Z,99006.95
2019-05-26T10:27:31.100Z,99005.89
2019-05-26T10:29:57.652Z,99004.11
2019-05-26T10:32:24.245Z,98997.09
2019-05-26T10:34:50.891Z,98988.53
2019-05-26T10:37:17.541Z,98992.30
2019-05-26T10:39:45.231Z,98988.74
2019-05-26T10:42:11.972Z,98983.30
2019-05-26T10:44:38.546Z,98988.11
2019-05-26T10:47:05.125Z,98980.44
2019-05-26T10:49:31.812Z,98989.92
2019-05-26T10:51:58.439Z,98979.77
2019-05-26T10:54:25.264Z,98978.45
2019-05-26T10:56:51.853Z,98976.41
2019-05-26T10:59:18.470Z,98973.91
2019-05-26T11:01:44.960Z,98974.00
2019-05-26T11:04:11.576Z,98974.39
2019-05-26T11:06:37.990Z,98977.34
2019-05-26T11:09:06.628Z,98973.44
2019-05-26T11:11:33.670Z,98962.71
2019-05-26T11:14:03.148Z,98966.52
2019-05-26T11:16:28.964Z,98969.63
2019-05-26T11:18:55.435Z,98972.77
2019-05-26T11:21:22.161Z,98961.94
2019-05-26T11:23:52.396Z,98959.05
2019-05-26T11:26:19.054Z,98960.16
2019-05-26T11:28:45.587Z,98959.24
2019-05-26T11:31:12.315Z,98956.24
2019-05-26T11:33:38.991Z,98956.81
2019-05-26T11:36:05.657Z,98954.48
2019-05-26T11:38:33.725Z,98942.56
2019-05-26T11:41:00.551Z,98953.93
2019-05-26T11:43:27.119Z,98952.28
2019-05-26T11:45:53.739Z,98947.63
2019-05-26T11:48:20.341Z,98942.39
2019-05-26T11:50:47.287Z,98942.88
2019-05-26T11:53:13.791Z,98947.17
2019-05-26T11:55:42.209Z,98941.02
2019-05-26T11:58:08.901Z,98941.20
2019-05-26T12:00:35.551Z,98928.45
2019-05-26T12:03:02.414Z,98929.87
2019-05-26T12:05:29.124Z,98936.08
2019-05-26T12:07:55.675Z,98930.86
2019-05-26T12:10:22.193Z,98931.66
2019-05-26T12:12:48.835Z,98919.02
2019-05-26T12:15:16.053Z,98911.41
2019-05-26T12:17:42.747Z,98914.19
2019-05-26T12:20:10.075Z,98910.02
2019-05-26T12:22:36.713Z,98909.22
2019-05-26T12:25:06.341Z,98904.02
2019-05-26T12:27:32.932Z,98897.89
2019-05-26T12:29:59.646Z,98899.26
2019-05-26T12:32:26.560Z,98894.52
2019-05-26T12:34:53.202Z,98896.91
2019-05-26T12:37:19.800Z,98892.79
2019-05-26T12:39:46.321Z,98883.93
2019-05-26T12:42:12.919Z,98878.11
2019-05-26T12:44:48.944Z,98876.30
2019-05-26T12:47:08.022Z,98878.44
2019-05-26T12:49:34.646Z,98877.48
2019-05-26T12:52:01.399Z,98875.11
2019-05-26T12:54:27.898Z,98871.70
2019-05-26T12:56:54.596Z,98875.67
2019-05-26T12:59:21.262Z,98870.84
2019-05-26T13:01:48.011Z,98876.08
2019-05-26T13:04:14.615Z,98877.78
2019-05-26T13:06:41.350Z,98877.58
2019-05-26T13:09:10.336Z,98867.39
2019-05-26T13:11:36.863Z,98865.09
2019-05-26T13:14:03.836Z,98871.55
2019-05-26T13:16:30.370Z,98872.89
2019-05-26T13:18:56.900Z,98872.10
2019-05-26T13:21:23.438Z,98863.80
2019-05-26T13:23:50.164Z,98866.14
2019-05-26T13:26:16.601Z,98866.22
2019-05-26T13:28:43.509Z,98860.47
2019-05-26T13:31:10.340Z,98853.98
2019-05-26T13:33:36.946Z,98854.16
2019-05-26T13:36:03.542Z,98853.72
2019-05-26T13:38:30.196Z,98851.75
2019-05-26T13:40:56.857Z,98854.97
2019-05-26T13:43:23.392Z,98859.33
2019-05-26T13:45:51.038Z,98855.70
2019-05-26T13:48:17.837Z,98861.98
2019-05-26T13:50:44.434Z,98848.59
2019-05-26T13:53:10.977Z,98847.77
2019-05-26T13:55:37.732Z,98848.77
2019-05-26T13:58:04.447Z,98844.80
2019-05-26T14:00:31.034Z,98852.02
2019-05-26T14:02:57.658Z,98840.94
2019-05-26T14:05:24.236Z,98842.45
2019-05-26T14:07:59.607Z,98845.45
2019-05-26T14:10:34.744Z,98843.15
2019-05-26T14:13:01.768Z,98839.02
2019-05-26T14:15:37.197Z,98840.88
2019-05-26T14:17:57.485Z,98834.08
2019-05-26T14:20:38.918Z,98834.28
2019-05-26T14:23:06.953Z,98834.65
2019-05-26T14:25:33.959Z,98835.66
2019-05-26T14:28:00.852Z,98845.67
2019-05-26T14:30:27.600Z,98832.55
2019-05-26T14:32:54.242Z,98832.63
2019-05-26T14:35:20.666Z,98830.98
2019-05-26T14:37:47.279Z,98832.85
2019-05-26T14:40:14.020Z,98838.25
2019-05-26T14:42:40.599Z,98831.81
2019-05-26T14:45:07.798Z,98832.91
2019-05-26T14:47:34.513Z,98841.78
2019-05-26T14:50:01.363Z,98828.16
2019-05-26T14:52:28.110Z,98829.22
2019-05-26T14:54:54.599Z,98828.91
2019-05-26T14:57:21.279Z,98822.92
2019-05-26T14:59:47.981Z,98827.09
2019-05-26T15:02:14.582Z,98823.20
2019-05-26T15:04:41.227Z,98827.22
2019-05-26T15:07:07.845Z,98827.99
2019-05-26T15:09:35.047Z,98832.97
2019-05-26T15:12:01.805Z,98820.15
2019-05-26T15:14:28.312Z,98820.15
2019-05-26T15:16:54.826Z,98827.98
2019-05-26T15:19:21.433Z,98828.44
2019-05-26T15:21:47.870Z,98827.16
2019-05-26T15:24:14.626Z,98833.17
2019-05-26T15:26:41.105Z,98828.42
2019-05-26T15:29:07.626Z,98828.27
2019-05-26T15:31:34.275Z,98831.39
2019-05-26T15:34:00.867Z,98837.91
2019-05-26T15:36:27.300Z,98823.15
2019-05-26T15:38:53.895Z,98823.15
2019-05-26T15:41:20.429Z,98827.31
2019-05-26T15:43:47.500Z,98827.31
2019-05-26T15:46:24.643Z,98826.54
2019-05-26T15:48:42.602Z,98815.73
2019-05-26T15:51:09.114Z,98822.87
2019-05-26T15:53:35.632Z,98816.08
2019-05-26T15:56:02.357Z,98820.05
2019-05-26T15:58:29.161Z,98822.70
2019-05-26T16:00:55.741Z,98816.45
2019-05-26T16:03:22.234Z,98822.48
2019-05-26T16:05:48.992Z,98820.17
2019-05-26T16:08:15.723Z,98816.45
2019-05-26T16:10:42.187Z,98818.30
2019-05-26T16:13:08.763Z,98817.23
2019-05-26T16:15:35.388Z,98816.36
2019-05-26T16:18:01.831Z,98814.33
2019-05-26T16:20:28.424Z,98815.28
2019-05-26T16:22:55.252Z,98819.91
2019-05-26T16:25:21.901Z,98815.18
2019-05-26T16:27:48.578Z,98821.66
2019-05-26T16:30:15.625Z,98817.13
2019-05-26T16:32:42.844Z,98818.14
2019-05-26T16:35:09.711Z,98819.77
2019-05-26T16:37:36.269Z,98819.67
2019-05-26T16:40:06.091Z,98818.80
2019-05-26T16:42:33.124Z,98817.28
2019-05-26T16:44:59.622Z,98818.33
2019-05-26T16:47:27.809Z,98823.23
2019-05-26T16:49:54.239Z,98817.03
2019-05-26T16:52:21.077Z,98820.80
2019-05-26T16:54:47.570Z,98823.05
2019-05-26T16:57:14.166Z,98816.27
2019-05-26T16:59:40.709Z,98818.22
2019-05-26T17:02:07.424Z,98815.16
2019-05-26T17:04:33.971Z,98820.20
2019-05-26T17:07:00.408Z,98815.55
2019-05-26T17:09:28.257Z,98818.67
2019-05-26T17:11:54.819Z,98819.08
2019-05-26T17:14:21.462Z,98816.30
2019-05-26T17:16:48.125Z,98815.70
2019-05-26T17:19:14.600Z,98817.83
2019-05-26T17:21:41.157Z,98818.59
2019-05-26T17:24:07.953Z,98817.75
2019-05-26T17:26:34.635Z,98820.63
2019-05-26T17:29:03.092Z,98816.53
2019-05-26T17:31:29.527Z,98815.62
2019-05-26T17:33:56.097Z,98819.64
2019-05-26T17:36:22.748Z,98819.33
2019-05-26T17:38:49.472Z,98822.88
2019-05-26T17:41:16.121Z,98818.23
2019-05-26T17:43:42.678Z,98819.44
2019-05-26T17:46:09.307Z,98821.32
2019-05-26T17:48:35.861Z,98819.01
2019-05-26T17:51:02.531Z,98819.41
2019-05-26T17:53:29.164Z,98816.79
2019-05-26T17:55:55.877Z,98819.66
2019-05-26T17:58:22.424Z,98816.83
2019-05-26T18:00:49.458Z,98822.69
2019-05-26T18:03:16.251Z,98814.72
2019-05-26T18:05:43.026Z,98817.59
2019-05-26T18:08:09.559Z,98814.44
2019-05-26T18:10:36.416Z,98812.64
2019-05-26T18:13:03.459Z,98818.81
2019-05-26T18:15:30.047Z,98817.18
2019-05-26T18:17:56.691Z,98813.51
2019-05-26T18:20:23.420Z,98815.66
2019-05-26T18:22:50.178Z,98813.51
2019-05-26T18:25:16.844Z,98819.13
2019-05-26T18:27:44.143Z,98820.35
2019-05-26T18:30:11.553Z,98829.03
2019-05-26T18:32:38.166Z,98829.96
2019-05-26T18:35:06.723Z,98825.45
2019-05-26T18:37:33.457Z,98832.05
2019-05-26T18:40:00.434Z,98828.66
2019-05-26T18:42:27.218Z,98832.20
2019-05-26T18:44:53.895Z,98835.35
2019-05-26T18:47:20.706Z,98836.16
2019-05-26T18:49:47.331Z,98835.92
2019-05-26T18:52:14.185Z,98833.41
2019-05-26T18:54:40.748Z,98833.89
2019-05-26T18:57:08.800Z,98843.63
2019-05-26T18:59:35.694Z,98848.27
2019-05-26T19:02:03.483Z,98844.77
2019-05-26T19:04:30.181Z,98846.80
2019-05-26T19:06:57.138Z,98852.77
2019-05-26T19:09:23.858Z,98852.61
2019-05-26T19:11:51.049Z,98854.95
2019-05-26T19:14:17.814Z,98862.36
2019-05-26T19:16:44.581Z,98857.66
2019-05-26T19:19:11.034Z,98866.30
2019-05-26T19:21:37.729Z,98865.05
2019-05-26T19:24:04.375Z,98861.63
2019-05-26T19:26:30.846Z,98867.86
2019-05-26T19:28:57.520Z,98858.98
2019-05-26T19:31:24.077Z,98864.50
2019-05-26T19:33:50.839Z,98867.86
2019-05-26T19:36:17.730Z,98869.16
2019-05-26T19:38:44.721Z,98870.95
2019-05-26T19:41:13.139Z,98868.59
2019-05-26T19:43:39.845Z,98868.09
2019-05-26T19:46:06.606Z,98867.98
2019-05-26T19:48:37.049Z,98865.08
2019-05-26T19:51:01.701Z,98866.35
2019-05-26T19:53:28.250Z,98867.81
2019-05-26T19:55:54.943Z,98861.07
2019-05-26T19:58:21.835Z,98867.09
2019-05-26T20:00:48.473Z,98870.40
2019-05-26T20:03:15.398Z,98864.34
2019-05-26T20:05:44.000Z,98864.16
2019-05-26T20:08:10.708Z,98860.80
2019-05-26T20:10:37.649Z,98860.51
2019-05-26T20:13:04.531Z,98861.42
2019-05-26T20:15:31.353Z,98857.59
2019-05-26T20:17:58.628Z,98855.61
2019-05-26T20:20:25.558Z,98852.30
2019-05-26T20:22:52.271Z,98857.37
2019-05-26T20:25:19.171Z,98864.05
2019-05-26T20:27:46.060Z,98855.63
2019-05-26T20:30:14.962Z,98857.60
2019-05-26T20:32:41.810Z,98860.13
2019-05-26T20:35:10.002Z,98858.98
2019-05-26T20:37:38.561Z,98856.19
2019-05-26T20:40:09.437Z,98858.48
2019-05-26T20:42:36.018Z,98853.82
2019-05-26T20:45:08.045Z,98860.23
2019-05-26T20:47:34.590Z,98856.63
2019-05-26T20:50:01.765Z,98857.66
2019-05-26T20:52:29.903Z,98854.30
2019-05-26T20:54:56.583Z,98854.23
2019-05-26T20:57:23.211Z,98859.81
2019-05-26T20:59:49.914Z,98851.83
2019-05-26T21:02:16.644Z,98860.35
2019-05-26T21:04:43.148Z,98860.57
2019-05-26T21:07:09.856Z,98864.42
2019-05-26T21:09:36.336Z,98859.14
2019-05-26T21:12:03.360Z,98853.42
2019-05-26T21:14:30.116Z,98850.73
2019-05-26T21:16:56.628Z,98851.16
2019-05-26T21:19:23.179Z,98846.91
2019-05-26T21:21:49.991Z,98851.05
2019-05-26T21:24:16.802Z,98848.25
2019-05-26T21:26:43.361Z,98844.81
2019-05-26T21:29:10.137Z,98843.17
2019-05-26T21:31:36.839Z,98853.55
2019-05-26T21:34:03.782Z,98845.86
2019-05-26T21:36:30.397Z,98848.98
2019-05-26T21:38:57.284Z,98850.53
2019-05-26T21:42:17.345Z,98860.80
2019-05-26T21:45:13.121Z,98846.80
2019-05-26T21:47:39.947Z,98842.86
2019-05-26T21:50:11.367Z,98858.48
2019-05-26T22:13:39.383Z,98844.13
2019-05-26T22:19:43.133Z,98849.77
2019-05-26T22:22:10.013Z,98851.20
2019-05-26T22:24:47.649Z,98858.86
2019-05-26T22:27:14.401Z,98846.30
2019-05-26T22:33:21.853Z,98844.28
2019-05-26T22:35:48.881Z,98850.64
2019-05-26T22:38:15.699Z,98855.80
2019-05-26T22:40:42.343Z,98850.98
2019-05-26T22:43:12.560Z,98839.47
2019-05-26T22:57:20.426Z,98843.36
2019-05-26T23:00:09.589Z,98848.66
2019-05-26T23:02:36.685Z,98852.34
2019-05-26T23:31:01.271Z,98843.27
2019-05-26T23:36:58.759Z,98840.79
2019-05-26T23:39:25.648Z,98854.18
